Terminal Aerodrome Forecast
Issued by NWS Sioux Falls, SD

Home | Current Version | Previous Version | Text Only | Print | Product List | Glossary On
Versions: 1 2 3 4 5 6 7 8 9 10 11 12 13 14 15
000
FTUS43 KFSD 031138
TAFFSD
TAF
KFSD 031138Z 0312/0412 18006KT 1SM -SN OVC020
     FM031330 24008KT 1 1/2SM -SN OVC012
      TEMPO 0315/0316 31013G18KT
     FM031600 34023G34KT P6SM OVC015
     FM032200 32018G26KT P6SM SCT020 BKN150
     FM040100 31009KT P6SM SCT200=

USA.gov is the U.S. government's official web portal to all federal, state and local government web resources and services.